sensor_id;sensor_type;location;lat;lon;timestamp;temperature;humidity
19437;DHT22;9854;50.968;4.168;2023-11-19T00:01:31;14.30;99.90
19437;DHT22;9854;50.968;4.168;2023-11-19T00:03:58;14.30;99.90
19437;DHT22;9854;50.968;4.168;2023-11-19T00:06:23;14.20;99.90
19437;DHT22;9854;50.968;4.168;2023-11-19T00:08:51;14.20;99.90
19437;DHT22;9854;50.968;4.168;2023-11-19T00:11:16;14.20;99.90
19437;DHT22;9854;50.968;4.168;2023-11-19T00:13:42;14.20;99.90
19437;DHT22;9854;50.968;4.168;2023-11-19T00:16:08;14.30;99.90
19437;DHT22;9854;50.968;4.168;2023-11-19T00:18:35;14.20;99.90
19437;DHT22;9854;50.968;4.168;2023-11-19T00:21:02;14.20;99.90
19437;DHT22;9854;50.968;4.168;2023-11-19T00:23:28;14.30;99.90
19437;DHT22;9854;50.968;4.168;2023-11-19T00:25:53;14.30;99.90
19437;DHT22;9854;50.968;4.168;2023-11-19T00:28:19;14.30;99.90
19437;DHT22;9854;50.968;4.168;2023-11-19T00:30:45;14.40;99.90
19437;DHT22;9854;50.968;4.168;2023-11-19T00:33:10;14.40;99.90
19437;DHT22;9854;50.968;4.168;2023-11-19T00:35:36;14.30;99.90
19437;DHT22;9854;50.968;4.168;2023-11-19T00:38:02;14.20;99.90
19437;DHT22;9854;50.968;4.168;2023-11-19T00:40:29;14.30;99.90
19437;DHT22;9854;50.968;4.168;2023-11-19T00:42:55;14.40;99.90
19437;DHT22;9854;50.968;4.168;2023-11-19T00:45:20;14.40;99.90
19437;DHT22;9854;50.968;4.168;2023-11-19T00:47:46;14.40;99.90
19437;DHT22;9854;50.968;4.168;2023-11-19T00:50:12;14.30;99.90
19437;DHT22;9854;50.968;4.168;2023-11-19T00:52:38;14.40;99.90
19437;DHT22;9854;50.968;4.168;2023-11-19T00:55:04;14.40;99.90
19437;DHT22;9854;50.968;4.168;2023-11-19T00:57:31;14.50;99.90
19437;DHT22;9854;50.968;4.168;2023-11-19T00:59:59;14.50;99.90
19437;DHT22;9854;50.968;4.168;2023-11-19T01:02:25;14.50;99.90
19437;DHT22;9854;50.968;4.168;2023-11-19T01:04:50;14.50;99.90
19437;DHT22;9854;50.968;4.168;2023-11-19T01:07:16;14.40;99.90
19437;DHT22;9854;50.968;4.168;2023-11-19T01:09:42;14.40;99.90
19437;DHT22;9854;50.968;4.168;2023-11-19T01:12:08;14.40;99.90
19437;DHT22;9854;50.968;4.168;2023-11-19T01:14:35;14.40;99.90
19437;DHT22;9854;50.968;4.168;2023-11-19T01:17:01;14.30;99.90
19437;DHT22;9854;50.968;4.168;2023-11-19T01:19:27;14.30;99.90
19437;DHT22;9854;50.968;4.168;2023-11-19T01:21:54;14.40;99.90
19437;DHT22;9854;50.968;4.168;2023-11-19T01:24:20;14.50;99.90
19437;DHT22;9854;50.968;4.168;2023-11-19T01:26:46;14.40;99.90
19437;DHT22;9854;50.968;4.168;2023-11-19T01:29:12;14.40;99.90
19437;DHT22;9854;50.968;4.168;2023-11-19T01:31:46;14.40;99.90
19437;DHT22;9854;50.968;4.168;2023-11-19T01:34:13;14.30;99.90
19437;DHT22;9854;50.968;4.168;2023-11-19T01:36:39;14.30;99.90
19437;DHT22;9854;50.968;4.168;2023-11-19T01:39:05;14.20;99.90
19437;DHT22;9854;50.968;4.168;2023-11-19T01:41:35;14.20;99.90
19437;DHT22;9854;50.968;4.168;2023-11-19T01:44:01;14.10;99.90
19437;DHT22;9854;50.968;4.168;2023-11-19T01:46:27;14.10;99.90
19437;DHT22;9854;50.968;4.168;2023-11-19T01:48:53;14.10;99.90
19437;DHT22;9854;50.968;4.168;2023-11-19T01:51:19;14.00;99.90
19437;DHT22;9854;50.968;4.168;2023-11-19T01:53:48;14.10;99.90
19437;DHT22;9854;50.968;4.168;2023-11-19T01:56:15;14.10;99.90
19437;DHT22;9854;50.968;4.168;2023-11-19T01:58:42;14.10;99.90
19437;DHT22;9854;50.968;4.168;2023-11-19T02:01:10;14.10;99.90
19437;DHT22;9854;50.968;4.168;2023-11-19T02:03:36;14.20;99.90
19437;DHT22;9854;50.968;4.168;2023-11-19T02:06:03;14.00;99.90
19437;DHT22;9854;50.968;4.168;2023-11-19T02:08:29;14.00;99.90
19437;DHT22;9854;50.968;4.168;2023-11-19T02:10:55;14.10;99.90
19437;DHT22;9854;50.968;4.168;2023-11-19T02:13:26;14.00;99.90
19437;DHT22;9854;50.968;4.168;2023-11-19T02:15:52;14.00;99.90
19437;DHT22;9854;50.968;4.168;2023-11-19T02:18:23;14.00;99.90
19437;DHT22;9854;50.968;4.168;2023-11-19T02:20:50;14.10;99.90
19437;DHT22;9854;50.968;4.168;2023-11-19T02:23:17;14.10;99.90
19437;DHT22;9854;50.968;4.168;2023-11-19T02:25:53;14.10;99.90
19437;DHT22;9854;50.968;4.168;2023-11-19T02:28:20;14.10;99.90
19437;DHT22;9854;50.968;4.168;2023-11-19T02:30:46;14.10;99.90
19437;DHT22;9854;50.968;4.168;2023-11-19T02:33:12;14.10;99.90
19437;DHT22;9854;50.968;4.168;2023-11-19T02:35:38;14.10;99.90
19437;DHT22;9854;50.968;4.168;2023-11-19T02:38:06;14.10;99.90
19437;DHT22;9854;50.968;4.168;2023-11-19T02:40:32;14.20;99.90
19437;DHT22;9854;50.968;4.168;2023-11-19T02:42:58;14.10;99.90
19437;DHT22;9854;50.968;4.168;2023-11-19T02:45:24;14.10;99.90
19437;DHT22;9854;50.968;4.168;2023-11-19T02:47:53;14.00;99.90
19437;DHT22;9854;50.968;4.168;2023-11-19T02:50:20;14.10;99.90
19437;DHT22;9854;50.968;4.168;2023-11-19T02:52:52;14.00;99.90
19437;DHT22;9854;50.968;4.168;2023-11-19T02:55:24;13.90;99.90
19437;DHT22;9854;50.968;4.168;2023-11-19T02:57:51;13.80;99.90
19437;DHT22;9854;50.968;4.168;2023-11-19T03:00:20;13.80;99.90
19437;DHT22;9854;50.968;4.168;2023-11-19T03:02:50;13.80;99.90
19437;DHT22;9854;50.968;4.168;2023-11-19T03:05:30;13.80;99.90
19437;DHT22;9854;50.968;4.168;2023-11-19T03:07:56;13.70;99.90
19437;DHT22;9854;50.968;4.168;2023-11-19T03:10:23;13.70;99.90
19437;DHT22;9854;50.968;4.168;2023-11-19T03:12:49;13.60;99.90
19437;DHT22;9854;50.968;4.168;2023-11-19T03:15:15;13.60;99.90
19437;DHT22;9854;50.968;4.168;2023-11-19T03:17:42;13.60;99.90
19437;DHT22;9854;50.968;4.168;2023-11-19T03:20:10;13.60;99.90
19437;DHT22;9854;50.968;4.168;2023-11-19T03:22:39;13.60;99.90
19437;DHT22;9854;50.968;4.168;2023-11-19T03:25:07;13.60;99.90
19437;DHT22;9854;50.968;4.168;2023-11-19T03:27:37;13.60;99.90
19437;DHT22;9854;50.968;4.168;2023-11-19T03:30:08;13.60;99.90
19437;DHT22;9854;50.968;4.168;2023-11-19T03:32:35;13.60;99.90
19437;DHT22;9854;50.968;4.168;2023-11-19T03:35:01;13.60;99.90
19437;DHT22;9854;50.968;4.168;2023-11-19T03:37:27;13.50;99.90
19437;DHT22;9854;50.968;4.168;2023-11-19T03:39:59;13.50;99.90
19437;DHT22;9854;50.968;4.168;2023-11-19T03:42:28;13.40;99.90
19437;DHT22;9854;50.968;4.168;2023-11-19T03:44:56;13.40;99.90
19437;DHT22;9854;50.968;4.168;2023-11-19T03:47:22;13.40;99.90
19437;DHT22;9854;50.968;4.168;2023-11-19T03:49:51;13.40;99.90
19437;DHT22;9854;50.968;4.168;2023-11-19T03:52:17;13.40;99.90
19437;DHT22;9854;50.968;4.168;2023-11-19T03:54:44;13.40;99.90
19437;DHT22;9854;50.968;4.168;2023-11-19T03:57:09;13.40;99.90
19437;DHT22;9854;50.968;4.168;2023-11-19T03:59:36;13.40;99.90
19437;DHT22;9854;50.968;4.168;2023-11-19T04:02:02;13.30;99.90
19437;DHT22;9854;50.968;4.168;2023-11-19T04:04:28;13.40;99.90
19437;DHT22;9854;50.968;4.168;2023-11-19T04:06:55;13.40;99.90
19437;DHT22;9854;50.968;4.168;2023-11-19T04:09:21;13.40;99.90
19437;DHT22;9854;50.968;4.168;2023-11-19T04:11:47;13.40;99.90
19437;DHT22;9854;50.968;4.168;2023-11-19T04:14:15;13.40;99.90
19437;DHT22;9854;50.968;4.168;2023-11-19T04:16:44;13.30;99.90
19437;DHT22;9854;50.968;4.168;2023-11-19T04:19:10;13.40;99.90
19437;DHT22;9854;50.968;4.168;2023-11-19T04:21:36;13.40;99.90
19437;DHT22;9854;50.968;4.168;2023-11-19T04:24:01;13.40;99.90
19437;DHT22;9854;50.968;4.168;2023-11-19T04:26:27;13.20;99.90
19437;DHT22;9854;50.968;4.168;2023-11-19T04:28:53;13.20;99.90
19437;DHT22;9854;50.968;4.168;2023-11-19T04:31:18;13.20;99.90
19437;DHT22;9854;50.968;4.168;2023-11-19T04:33:44;13.30;99.90
19437;DHT22;9854;50.968;4.168;2023-11-19T04:36:10;13.20;99.90
19437;DHT22;9854;50.968;4.168;2023-11-19T04:38:37;13.20;99.90
19437;DHT22;9854;50.968;4.168;2023-11-19T04:41:04;13.30;99.90
19437;DHT22;9854;50.968;4.168;2023-11-19T04:43:31;13.30;99.90
19437;DHT22;9854;50.968;4.168;2023-11-19T04:45:57;13.30;99.90
19437;DHT22;9854;50.968;4.168;2023-11-19T04:48:23;13.30;99.90
19437;DHT22;9854;50.968;4.168;2023-11-19T04:50:49;13.20;99.90
19437;DHT22;9854;50.968;4.168;2023-11-19T04:53:16;13.20;99.90
19437;DHT22;9854;50.968;4.168;2023-11-19T04:55:41;13.20;99.90
19437;DHT22;9854;50.968;4.168;2023-11-19T04:58:07;13.20;99.90
19437;DHT22;9854;50.968;4.168;2023-11-19T05:00:32;13.20;99.90
19437;DHT22;9854;50.968;4.168;2023-11-19T05:02:58;13.10;99.90
19437;DHT22;9854;50.968;4.168;2023-11-19T05:05:24;13.20;99.90
19437;DHT22;9854;50.968;4.168;2023-11-19T05:07:49;13.20;99.90
19437;DHT22;9854;50.968;4.168;2023-11-19T05:10:15;13.10;99.90
19437;DHT22;9854;50.968;4.168;2023-11-19T05:12:40;13.00;99.90
19437;DHT22;9854;50.968;4.168;2023-11-19T05:15:08;13.00;99.90
19437;DHT22;9854;50.968;4.168;2023-11-19T05:17:34;12.90;99.90
19437;DHT22;9854;50.968;4.168;2023-11-19T05:19:59;12.80;99.90
19437;DHT22;9854;50.968;4.168;2023-11-19T05:22:25;12.90;99.90
19437;DHT22;9854;50.968;4.168;2023-11-19T05:24:51;13.00;99.90
19437;DHT22;9854;50.968;4.168;2023-11-19T05:27:17;13.00;99.90
19437;DHT22;9854;50.968;4.168;2023-11-19T05:29:43;12.80;99.90
19437;DHT22;9854;50.968;4.168;2023-11-19T05:32:09;12.70;99.90
19437;DHT22;9854;50.968;4.168;2023-11-19T05:34:35;12.70;99.90
19437;DHT22;9854;50.968;4.168;2023-11-19T05:37:01;12.90;99.90
19437;DHT22;9854;50.968;4.168;2023-11-19T05:39:28;12.80;99.90
19437;DHT22;9854;50.968;4.168;2023-11-19T05:41:53;12.70;99.90
19437;DHT22;9854;50.968;4.168;2023-11-19T05:44:19;12.70;99.90
19437;DHT22;9854;50.968;4.168;2023-11-19T05:46:45;12.60;99.90
19437;DHT22;9854;50.968;4.168;2023-11-19T05:49:11;12.70;99.90
19437;DHT22;9854;50.968;4.168;2023-11-19T05:51:40;12.60;99.90
19437;DHT22;9854;50.968;4.168;2023-11-19T05:54:09;12.50;99.90
19437;DHT22;9854;50.968;4.168;2023-11-19T05:56:36;12.50;99.90
19437;DHT22;9854;50.968;4.168;2023-11-19T05:59:02;12.50;99.90
19437;DHT22;9854;50.968;4.168;2023-11-19T06:01:29;12.60;99.90
19437;DHT22;9854;50.968;4.168;2023-11-19T06:03:55;12.60;99.90
19437;DHT22;9854;50.968;4.168;2023-11-19T06:06:20;12.60;99.90
19437;DHT22;9854;50.968;4.168;2023-11-19T06:08:46;12.60;99.90
19437;DHT22;9854;50.968;4.168;2023-11-19T06:11:13;12.50;99.90
19437;DHT22;9854;50.968;4.168;2023-11-19T06:13:43;12.60;99.90
19437;DHT22;9854;50.968;4.168;2023-11-19T06:16:09;12.50;99.90
19437;DHT22;9854;50.968;4.168;2023-11-19T06:18:36;12.50;99.90
19437;DHT22;9854;50.968;4.168;2023-11-19T06:21:02;12.50;99.90
19437;DHT22;9854;50.968;4.168;2023-11-19T06:23:28;12.60;99.90
19437;DHT22;9854;50.968;4.168;2023-11-19T06:25:53;12.50;99.90
19437;DHT22;9854;50.968;4.168;2023-11-19T06:28:19;12.50;99.90
19437;DHT22;9854;50.968;4.168;2023-11-19T06:30:44;12.40;99.90
19437;DHT22;9854;50.968;4.168;2023-11-19T06:33:13;12.40;99.90
19437;DHT22;9854;50.968;4.168;2023-11-19T06:35:38;12.40;99.90
19437;DHT22;9854;50.968;4.168;2023-11-19T06:38:04;12.40;99.90
19437;DHT22;9854;50.968;4.168;2023-11-19T06:40:31;12.40;99.90
19437;DHT22;9854;50.968;4.168;2023-11-19T06:42:57;12.30;99.90
19437;DHT22;9854;50.968;4.168;2023-11-19T06:45:22;12.30;99.90
19437;DHT22;9854;50.968;4.168;2023-11-19T06:47:48;12.40;99.90
19437;DHT22;9854;50.968;4.168;2023-11-19T06:50:14;12.30;99.90
19437;DHT22;9854;50.968;4.168;2023-11-19T06:52:40;12.20;99.90
19437;DHT22;9854;50.968;4.168;2023-11-19T06:55:06;12.10;99.90
19437;DHT22;9854;50.968;4.168;2023-11-19T06:57:32;12.20;99.90
19437;DHT22;9854;50.968;4.168;2023-11-19T06:59:58;12.10;99.90
19437;DHT22;9854;50.968;4.168;2023-11-19T07:02:24;12.10;99.90
19437;DHT22;9854;50.968;4.168;2023-11-19T07:04:50;12.20;99.90
19437;DHT22;9854;50.968;4.168;2023-11-19T07:07:16;12.30;99.90
19437;DHT22;9854;50.968;4.168;2023-11-19T07:09:42;12.30;99.90
19437;DHT22;9854;50.968;4.168;2023-11-19T07:12:08;12.30;99.90
19437;DHT22;9854;50.968;4.168;2023-11-19T07:14:34;12.20;99.90
19437;DHT22;9854;50.968;4.168;2023-11-19T07:17:00;12.20;99.90
19437;DHT22;9854;50.968;4.168;2023-11-19T07:19:26;12.30;99.90
19437;DHT22;9854;50.968;4.168;2023-11-19T07:21:51;12.30;99.90
19437;DHT22;9854;50.968;4.168;2023-11-19T07:24:20;12.30;99.90
19437;DHT22;9854;50.968;4.168;2023-11-19T07:26:47;12.20;99.90
19437;DHT22;9854;50.968;4.168;2023-11-19T07:29:13;12.20;99.90
19437;DHT22;9854;50.968;4.168;2023-11-19T07:31:40;12.20;99.90
19437;DHT22;9854;50.968;4.168;2023-11-19T07:34:06;12.30;99.90
19437;DHT22;9854;50.968;4.168;2023-11-19T07:36:32;12.30;99.90
19437;DHT22;9854;50.968;4.168;2023-11-19T07:38:58;12.30;99.90
19437;DHT22;9854;50.968;4.168;2023-11-19T07:41:24;12.30;99.90
19437;DHT22;9854;50.968;4.168;2023-11-19T07:43:51;12.30;99.90
19437;DHT22;9854;50.968;4.168;2023-11-19T07:46:18;12.30;99.90
19437;DHT22;9854;50.968;4.168;2023-11-19T07:48:46;12.30;99.90
19437;DHT22;9854;50.968;4.168;2023-11-19T07:51:13;12.30;99.90
19437;DHT22;9854;50.968;4.168;2023-11-19T07:53:39;12.30;99.90
19437;DHT22;9854;50.968;4.168;2023-11-19T07:56:07;12.40;99.90
19437;DHT22;9854;50.968;4.168;2023-11-19T07:58:33;12.50;99.90
19437;DHT22;9854;50.968;4.168;2023-11-19T08:00:58;12.50;99.90
19437;DHT22;9854;50.968;4.168;2023-11-19T08:03:24;12.50;99.90
19437;DHT22;9854;50.968;4.168;2023-11-19T08:05:50;12.50;99.90
19437;DHT22;9854;50.968;4.168;2023-11-19T08:08:16;12.60;99.90
19437;DHT22;9854;50.968;4.168;2023-11-19T08:10:42;12.70;99.90
19437;DHT22;9854;50.968;4.168;2023-11-19T08:13:10;12.60;99.90
19437;DHT22;9854;50.968;4.168;2023-11-19T08:15:36;12.70;99.90
19437;DHT22;9854;50.968;4.168;2023-11-19T08:18:01;12.50;99.90
19437;DHT22;9854;50.968;4.168;2023-11-19T08:20:27;12.50;99.90
19437;DHT22;9854;50.968;4.168;2023-11-19T08:22:53;12.50;99.90
19437;DHT22;9854;50.968;4.168;2023-11-19T08:25:19;12.50;99.90
19437;DHT22;9854;50.968;4.168;2023-11-19T08:27:46;12.50;99.90
19437;DHT22;9854;50.968;4.168;2023-11-19T08:30:12;12.60;99.90
19437;DHT22;9854;50.968;4.168;2023-11-19T08:32:38;12.60;99.90
19437;DHT22;9854;50.968;4.168;2023-11-19T08:35:03;12.50;99.90
19437;DHT22;9854;50.968;4.168;2023-11-19T08:37:29;12.40;99.90
19437;DHT22;9854;50.968;4.168;2023-11-19T08:39:55;12.50;99.90
19437;DHT22;9854;50.968;4.168;2023-11-19T08:42:21;12.50;99.90
19437;DHT22;9854;50.968;4.168;2023-11-19T08:44:50;12.50;99.90
19437;DHT22;9854;50.968;4.168;2023-11-19T08:47:19;12.50;99.90
19437;DHT22;9854;50.968;4.168;2023-11-19T08:49:45;12.50;99.90
19437;DHT22;9854;50.968;4.168;2023-11-19T08:52:11;12.40;99.90
19437;DHT22;9854;50.968;4.168;2023-11-19T08:54:37;12.40;99.90
19437;DHT22;9854;50.968;4.168;2023-11-19T08:57:03;12.40;99.90
19437;DHT22;9854;50.968;4.168;2023-11-19T08:59:30;12.40;99.90
19437;DHT22;9854;50.968;4.168;2023-11-19T09:01:55;12.40;99.90
19437;DHT22;9854;50.968;4.168;2023-11-19T09:04:21;12.30;99.90
19437;DHT22;9854;50.968;4.168;2023-11-19T09:06:50;12.50;99.90
19437;DHT22;9854;50.968;4.168;2023-11-19T09:09:16;12.40;99.90
19437;DHT22;9854;50.968;4.168;2023-11-19T09:11:42;12.40;99.90
19437;DHT22;9854;50.968;4.168;2023-11-19T09:14:08;12.50;99.90
19437;DHT22;9854;50.968;4.168;2023-11-19T09:16:33;12.50;99.90
19437;DHT22;9854;50.968;4.168;2023-11-19T09:19:00;12.70;99.90
19437;DHT22;9854;50.968;4.168;2023-11-19T09:21:26;12.70;99.90
19437;DHT22;9854;50.968;4.168;2023-11-19T09:23:51;12.80;99.90
19437;DHT22;9854;50.968;4.168;2023-11-19T09:26:21;12.90;99.90
19437;DHT22;9854;50.968;4.168;2023-11-19T09:28:47;13.00;99.90
19437;DHT22;9854;50.968;4.168;2023-11-19T09:31:16;13.00;99.90
19437;DHT22;9854;50.968;4.168;2023-11-19T09:33:42;13.20;99.90
19437;DHT22;9854;50.968;4.168;2023-11-19T09:36:08;13.30;99.90
19437;DHT22;9854;50.968;4.168;2023-11-19T09:38:34;13.20;99.90
19437;DHT22;9854;50.968;4.168;2023-11-19T09:41:05;13.20;99.90
19437;DHT22;9854;50.968;4.168;2023-11-19T09:43:34;13.20;99.90
19437;DHT22;9854;50.968;4.168;2023-11-19T09:46:09;13.30;99.90
19437;DHT22;9854;50.968;4.168;2023-11-19T09:48:38;13.20;99.90
19437;DHT22;9854;50.968;4.168;2023-11-19T09:51:11;13.20;99.90
19437;DHT22;9854;50.968;4.168;2023-11-19T09:53:37;13.40;99.90
19437;DHT22;9854;50.968;4.168;2023-11-19T09:56:06;13.50;99.90
19437;DHT22;9854;50.968;4.168;2023-11-19T09:58:33;13.40;99.90
19437;DHT22;9854;50.968;4.168;2023-11-19T10:00:59;13.40;99.90
19437;DHT22;9854;50.968;4.168;2023-11-19T10:03:27;13.30;99.90
19437;DHT22;9854;50.968;4.168;2023-11-19T10:05:55;13.40;99.90
19437;DHT22;9854;50.968;4.168;2023-11-19T10:08:21;13.40;99.90
19437;DHT22;9854;50.968;4.168;2023-11-19T10:10:47;13.20;99.90
19437;DHT22;9854;50.968;4.168;2023-11-19T10:13:13;13.20;99.90
19437;DHT22;9854;50.968;4.168;2023-11-19T10:15:40;13.30;99.90
19437;DHT22;9854;50.968;4.168;2023-11-19T10:18:06;13.20;99.90
19437;DHT22;9854;50.968;4.168;2023-11-19T10:20:40;13.30;99.90
19437;DHT22;9854;50.968;4.168;2023-11-19T10:39:58;13.20;99.90
19437;DHT22;9854;50.968;4.168;2023-11-19T10:45:42;13.20;99.90
19437;DHT22;9854;50.968;4.168;2023-11-19T10:48:11;13.20;99.90
19437;DHT22;9854;50.968;4.168;2023-11-19T10:50:40;13.30;99.90
19437;DHT22;9854;50.968;4.168;2023-11-19T10:53:07;13.50;99.90
19437;DHT22;9854;50.968;4.168;2023-11-19T10:55:35;13.50;99.90
19437;DHT22;9854;50.968;4.168;2023-11-19T10:58:02;13.60;99.90
19437;DHT22;9854;50.968;4.168;2023-11-19T11:00:44;13.60;99.90
19437;DHT22;9854;50.968;4.168;2023-11-19T11:03:19;13.70;99.90
19437;DHT22;9854;50.968;4.168;2023-11-19T11:05:50;13.70;99.90
19437;DHT22;9854;50.968;4.168;2023-11-19T11:08:16;13.80;99.90
19437;DHT22;9854;50.968;4.168;2023-11-19T11:11:02;13.80;99.90
19437;DHT22;9854;50.968;4.168;2023-11-19T11:13:32;13.80;99.90
19437;DHT22;9854;50.968;4.168;2023-11-19T11:15:59;13.80;99.90
19437;DHT22;9854;50.968;4.168;2023-11-19T11:18:28;13.80;99.90
19437;DHT22;9854;50.968;4.168;2023-11-19T11:21:08;13.80;99.90
19437;DHT22;9854;50.968;4.168;2023-11-19T11:26:50;13.90;99.90
19437;DHT22;9854;50.968;4.168;2023-11-19T11:37:37;14.00;99.90
19437;DHT22;9854;50.968;4.168;2023-11-19T11:40:05;14.00;99.90
19437;DHT22;9854;50.968;4.168;2023-11-19T11:42:38;14.20;99.90
19437;DHT22;9854;50.968;4.168;2023-11-19T11:45:09;14.10;99.90
19437;DHT22;9854;50.968;4.168;2023-11-19T11:50:13;14.00;99.90
19437;DHT22;9854;50.968;4.168;2023-11-19T11:57:57;14.20;99.90
19437;DHT22;9854;50.968;4.168;2023-11-19T12:00:30;14.10;99.90
19437;DHT22;9854;50.968;4.168;2023-11-19T12:03:00;14.00;99.90
19437;DHT22;9854;50.968;4.168;2023-11-19T12:05:26;14.10;99.90
19437;DHT22;9854;50.968;4.168;2023-11-19T12:07:55;14.00;99.90
19437;DHT22;9854;50.968;4.168;2023-11-19T12:10:26;14.00;99.90
19437;DHT22;9854;50.968;4.168;2023-11-19T12:12:58;13.80;99.90
19437;DHT22;9854;50.968;4.168;2023-11-19T12:15:26;13.80;99.90
19437;DHT22;9854;50.968;4.168;2023-11-19T12:17:55;13.80;99.90
19437;DHT22;9854;50.968;4.168;2023-11-19T12:20:25;13.80;99.90
19437;DHT22;9854;50.968;4.168;2023-11-19T12:22:52;13.60;99.90
19437;DHT22;9854;50.968;4.168;2023-11-19T12:25:19;13.50;99.90
19437;DHT22;9854;50.968;4.168;2023-11-19T12:27:50;13.40;99.90
19437;DHT22;9854;50.968;4.168;2023-11-19T12:30:27;13.30;99.90
19437;DHT22;9854;50.968;4.168;2023-11-19T12:32:55;13.30;99.90
19437;DHT22;9854;50.968;4.168;2023-11-19T12:35:21;13.20;99.90
19437;DHT22;9854;50.968;4.168;2023-11-19T12:37:49;13.20;99.90
19437;DHT22;9854;50.968;4.168;2023-11-19T12:40:15;13.20;99.90
19437;DHT22;9854;50.968;4.168;2023-11-19T12:42:43;13.30;99.90
19437;DHT22;9854;50.968;4.168;2023-11-19T12:45:09;13.30;99.90
19437;DHT22;9854;50.968;4.168;2023-11-19T12:47:39;13.40;99.90
19437;DHT22;9854;50.968;4.168;2023-11-19T12:50:06;13.30;99.90
19437;DHT22;9854;50.968;4.168;2023-11-19T12:52:33;13.30;99.90
19437;DHT22;9854;50.968;4.168;2023-11-19T12:54:59;13.20;99.90
19437;DHT22;9854;50.968;4.168;2023-11-19T12:57:39;13.30;99.90
19437;DHT22;9854;50.968;4.168;2023-11-19T13:00:06;13.50;99.90
19437;DHT22;9854;50.968;4.168;2023-11-19T13:02:48;13.40;99.90
19437;DHT22;9854;50.968;4.168;2023-11-19T13:05:31;13.20;99.90
19437;DHT22;9854;50.968;4.168;2023-11-19T13:10:28;13.20;99.90
19437;DHT22;9854;50.968;4.168;2023-11-19T13:13:06;13.10;99.90
19437;DHT22;9854;50.968;4.168;2023-11-19T13:15:35;13.10;99.90
19437;DHT22;9854;50.968;4.168;2023-11-19T13:18:01;13.10;99.90
19437;DHT22;9854;50.968;4.168;2023-11-19T13:20:29;13.10;99.90
19437;DHT22;9854;50.968;4.168;2023-11-19T13:22:59;13.10;99.90
19437;DHT22;9854;50.968;4.168;2023-11-19T13:25:26;13.20;99.90
19437;DHT22;9854;50.968;4.168;2023-11-19T13:27:52;13.20;99.90
19437;DHT22;9854;50.968;4.168;2023-11-19T13:30:18;13.20;99.90
19437;DHT22;9854;50.968;4.168;2023-11-19T13:32:44;13.30;99.90
19437;DHT22;9854;50.968;4.168;2023-11-19T13:35:14;13.40;99.90
19437;DHT22;9854;50.968;4.168;2023-11-19T13:37:43;13.50;99.90
19437;DHT22;9854;50.968;4.168;2023-11-19T13:40:12;13.60;99.90
19437;DHT22;9854;50.968;4.168;2023-11-19T13:42:41;13.70;99.90
19437;DHT22;9854;50.968;4.168;2023-11-19T13:47:43;13.70;99.90
19437;DHT22;9854;50.968;4.168;2023-11-19T13:50:12;13.70;99.90
19437;DHT22;9854;50.968;4.168;2023-11-19T13:52:39;13.60;99.90
19437;DHT22;9854;50.968;4.168;2023-11-19T13:55:07;13.60;99.90
19437;DHT22;9854;50.968;4.168;2023-11-19T13:57:37;13.60;99.90
19437;DHT22;9854;50.968;4.168;2023-11-19T14:00:05;13.60;99.90
19437;DHT22;9854;50.968;4.168;2023-11-19T14:02:32;13.50;99.90
19437;DHT22;9854;50.968;4.168;2023-11-19T14:05:00;13.60;99.90
19437;DHT22;9854;50.968;4.168;2023-11-19T14:07:26;13.70;99.90
19437;DHT22;9854;50.968;4.168;2023-11-19T14:09:57;13.70;99.90
19437;DHT22;9854;50.968;4.168;2023-11-19T14:12:23;13.70;99.90
19437;DHT22;9854;50.968;4.168;2023-11-19T14:14:51;13.60;99.90
19437;DHT22;9854;50.968;4.168;2023-11-19T14:17:16;13.40;99.90
19437;DHT22;9854;50.968;4.168;2023-11-19T14:19:43;13.30;99.90
19437;DHT22;9854;50.968;4.168;2023-11-19T14:22:09;13.20;99.90
19437;DHT22;9854;50.968;4.168;2023-11-19T14:24:35;13.20;99.90
19437;DHT22;9854;50.968;4.168;2023-11-19T14:27:01;13.10;99.90
19437;DHT22;9854;50.968;4.168;2023-11-19T14:29:27;13.00;99.90
19437;DHT22;9854;50.968;4.168;2023-11-19T14:31:56;12.80;99.90
19437;DHT22;9854;50.968;4.168;2023-11-19T14:34:25;12.60;99.90
19437;DHT22;9854;50.968;4.168;2023-11-19T14:36:52;12.40;99.90
19437;DHT22;9854;50.968;4.168;2023-11-19T14:39:17;12.40;99.90
19437;DHT22;9854;50.968;4.168;2023-11-19T14:41:43;12.50;99.90
19437;DHT22;9854;50.968;4.168;2023-11-19T14:44:10;12.60;99.90
19437;DHT22;9854;50.968;4.168;2023-11-19T14:46:36;12.70;99.90
19437;DHT22;9854;50.968;4.168;2023-11-19T14:49:01;12.70;99.90
19437;DHT22;9854;50.968;4.168;2023-11-19T14:51:27;12.70;99.90
19437;DHT22;9854;50.968;4.168;2023-11-19T14:53:53;12.70;99.90
19437;DHT22;9854;50.968;4.168;2023-11-19T14:56:18;12.70;99.90
19437;DHT22;9854;50.968;4.168;2023-11-19T14:58:46;12.80;99.90
19437;DHT22;9854;50.968;4.168;2023-11-19T15:01:13;12.90;99.90
19437;DHT22;9854;50.968;4.168;2023-11-19T15:03:39;12.90;99.90
19437;DHT22;9854;50.968;4.168;2023-11-19T15:06:05;12.90;99.90
19437;DHT22;9854;50.968;4.168;2023-11-19T15:08:34;12.90;99.90
19437;DHT22;9854;50.968;4.168;2023-11-19T15:11:00;12.90;99.90
19437;DHT22;9854;50.968;4.168;2023-11-19T15:13:30;13.00;99.90
19437;DHT22;9854;50.968;4.168;2023-11-19T15:15:57;13.00;99.90
19437;DHT22;9854;50.968;4.168;2023-11-19T15:18:28;13.00;99.90
19437;DHT22;9854;50.968;4.168;2023-11-19T15:20:53;13.00;99.90
19437;DHT22;9854;50.968;4.168;2023-11-19T15:23:21;13.10;99.90
19437;DHT22;9854;50.968;4.168;2023-11-19T15:25:47;13.00;99.90
19437;DHT22;9854;50.968;4.168;2023-11-19T15:28:16;12.90;99.90
19437;DHT22;9854;50.968;4.168;2023-11-19T15:30:42;12.90;99.90
19437;DHT22;9854;50.968;4.168;2023-11-19T15:33:07;12.90;99.90
19437;DHT22;9854;50.968;4.168;2023-11-19T15:35:34;12.90;99.90
19437;DHT22;9854;50.968;4.168;2023-11-19T15:38:02;13.00;99.90
19437;DHT22;9854;50.968;4.168;2023-11-19T15:40:30;13.00;99.90
19437;DHT22;9854;50.968;4.168;2023-11-19T15:42:56;13.00;99.90
19437;DHT22;9854;50.968;4.168;2023-11-19T15:45:25;13.10;99.90
19437;DHT22;9854;50.968;4.168;2023-11-19T15:47:53;13.00;99.90
19437;DHT22;9854;50.968;4.168;2023-11-19T15:50:18;13.00;99.90
19437;DHT22;9854;50.968;4.168;2023-11-19T15:52:44;12.90;99.90
19437;DHT22;9854;50.968;4.168;2023-11-19T15:55:12;12.90;99.90
19437;DHT22;9854;50.968;4.168;2023-11-19T15:57:41;12.90;99.90
19437;DHT22;9854;50.968;4.168;2023-11-19T16:00:09;12.90;99.90
19437;DHT22;9854;50.968;4.168;2023-11-19T16:02:38;12.90;99.90
19437;DHT22;9854;50.968;4.168;2023-11-19T16:05:07;12.90;99.90
19437;DHT22;9854;50.968;4.168;2023-11-19T16:07:34;12.80;99.90
19437;DHT22;9854;50.968;4.168;2023-11-19T16:10:03;12.70;99.90
19437;DHT22;9854;50.968;4.168;2023-11-19T16:12:32;12.60;99.90
19437;DHT22;9854;50.968;4.168;2023-11-19T16:14:57;12.50;99.90
19437;DHT22;9854;50.968;4.168;2023-11-19T16:17:25;12.40;99.90
19437;DHT22;9854;50.968;4.168;2023-11-19T16:19:54;12.30;99.90
19437;DHT22;9854;50.968;4.168;2023-11-19T16:22:20;12.30;99.90
19437;DHT22;9854;50.968;4.168;2023-11-19T16:24:46;12.20;99.90
19437;DHT22;9854;50.968;4.168;2023-11-19T16:27:16;12.10;99.90
19437;DHT22;9854;50.968;4.168;2023-11-19T16:29:44;12.10;99.90